Time;durP1;ratioP1;P1;durP2;ratioP2;P2;SDS_P1;SDS_P2;PMS_P1;PMS_P2;Temp;Humidity;BMP_temperature;BMP_pressure;BME280_temperature;BME280_humidity;BME280_pressure;Samples;Min_cycle;Max_cycle;Signal;HPM_P1;HPM_P2
2020/12/16 00:00:09;;;;;;;81.65;24.75;;;13.90;65.60;;;;;;5043827;28;20872;-62
2020/12/16 00:02:35;;;;;;;86.28;27.52;;;13.90;65.60;;;;;;5039161;28;20251;-62
2020/12/16 00:05:00;;;;;;;77.57;26.45;;;13.90;65.60;;;;;;5049982;28;20317;-62
2020/12/16 00:07:27;;;;;;;77.45;24.83;;;13.90;65.50;;;;;;5044856;28;20036;-62
2020/12/16 00:09:53;;;;;;;74.22;24.73;;;14.00;65.50;;;;;;5047258;28;20620;-62
2020/12/16 00:12:18;;;;;;;72.20;25.15;;;14.00;65.50;;;;;;5039825;28;20040;-62
2020/12/16 00:14:44;;;;;;;63.47;22.83;;;14.00;65.30;;;;;;5040026;28;20045;-62
2020/12/16 00:17:10;;;;;;;63.70;23.38;;;14.00;65.30;;;;;;5049227;28;20659;-62
2020/12/16 00:19:36;;;;;;;59.45;21.60;;;14.00;65.30;;;;;;5034214;28;20508;-62
2020/12/16 00:22:01;;;;;;;56.35;22.17;;;13.90;65.20;;;;;;5045565;28;20044;-62
2020/12/16 00:24:27;;;;;;;58.00;21.95;;;14.00;65.20;;;;;;5044648;28;20028;-62
2020/12/16 00:26:53;;;;;;;66.32;22.73;;;13.90;65.10;;;;;;5046845;28;21297;-62
2020/12/16 00:29:19;;;;;;;60.80;22.52;;;14.00;65.10;;;;;;5043929;28;20033;-62
2020/12/16 00:31:44;;;;;;;63.10;21.50;;;13.90;65.10;;;;;;5046568;28;20044;-62
2020/12/16 00:34:10;;;;;;;53.03;21.42;;;13.90;65.10;;;;;;5045642;28;20053;-62
2020/12/16 00:36:39;;;;;;;58.42;21.02;;;13.90;65.20;;;;;;5046346;28;20040;-62
2020/12/16 00:39:06;;;;;;;60.25;21.77;;;13.90;65.10;;;;;;5047493;28;20044;-62
2020/12/16 00:41:32;;;;;;;57.30;21.35;;;13.90;65.10;;;;;;5028056;28;20037;-62
2020/12/16 00:44:02;;;;;;;58.75;20.80;;;13.90;65.00;;;;;;5045598;28;20185;-62
2020/12/16 00:46:28;;;;;;;52.13;21.02;;;13.90;64.90;;;;;;5046003;28;20375;-62
2020/12/16 00:48:54;;;;;;;55.78;21.08;;;13.90;64.90;;;;;;5045046;28;20039;-62
2020/12/16 00:51:20;;;;;;;57.83;20.50;;;13.90;64.90;;;;;;5046178;28;20072;-62
2020/12/16 00:53:45;;;;;;;63.38;22.35;;;13.90;64.80;;;;;;5049037;28;20133;-62
2020/12/16 00:56:11;;;;;;;71.30;24.77;;;13.90;64.80;;;;;;5052025;28;20041;-62
2020/12/16 00:58:37;;;;;;;62.05;21.92;;;13.90;64.80;;;;;;5048102;28;20170;-62
2020/12/16 01:01:06;;;;;;;59.80;22.67;;;14.00;64.80;;;;;;5044854;28;20089;-62
2020/12/16 01:03:32;;;;;;;57.28;22.65;;;13.90;64.60;;;;;;5052284;28;20127;-62
2020/12/16 01:05:59;;;;;;;61.42;23.40;;;13.90;64.60;;;;;;5043652;28;20623;-62
2020/12/16 01:08:24;;;;;;;58.80;22.80;;;13.90;64.70;;;;;;5039956;28;20039;-62
2020/12/16 01:10:50;;;;;;;61.05;22.63;;;13.90;64.70;;;;;;5046801;28;20048;-62
2020/12/16 01:13:16;;;;;;;55.78;22.25;;;13.90;64.70;;;;;;5046161;22;20056;-64
2020/12/16 01:15:42;;;;;;;61.60;23.17;;;13.90;64.60;;;;;;5018137;28;20033;-64
2020/12/16 01:18:08;;;;;;;67.43;23.85;;;13.90;64.60;;;;;;5030175;28;20041;-65
2020/12/16 01:20:33;;;;;;;57.60;22.63;;;13.90;64.60;;;;;;5028202;28;20448;-65
2020/12/16 01:22:59;;;;;;;56.53;22.13;;;13.90;64.60;;;;;;5026604;28;20041;-66
2020/12/16 01:25:25;;;;;;;60.67;21.45;;;13.90;64.50;;;;;;5027492;28;20037;-66
2020/12/16 01:27:57;;;;;;;67.07;22.35;;;14.00;64.50;;;;;;5024461;28;20045;-66
2020/12/16 01:30:23;;;;;;;64.00;22.80;;;13.90;64.50;;;;;;5028631;28;20568;-66
2020/12/16 01:32:51;;;;;;;54.08;20.90;;;13.90;64.40;;;;;;5024084;28;20121;-66
2020/12/16 01:35:17;;;;;;;53.58;21.83;;;13.90;64.40;;;;;;5027877;28;20051;-66
2020/12/16 01:37:43;;;;;;;63.00;22.38;;;13.90;64.40;;;;;;5021639;28;20052;-66
2020/12/16 01:40:10;;;;;;;56.70;21.15;;;13.90;64.50;;;;;;5044999;28;20091;-66
2020/12/16 01:42:38;;;;;;;61.30;22.98;;;13.90;64.50;;;;;;5023672;28;20041;-66
2020/12/16 01:45:08;;;;;;;62.00;21.88;;;13.90;64.50;;;;;;5023203;28;20041;-66
2020/12/16 01:47:37;;;;;;;57.50;21.35;;;13.90;64.50;;;;;;5028253;28;20032;-66
2020/12/16 01:50:05;;;;;;;50.58;20.55;;;13.90;64.40;;;;;;5026973;28;20045;-66
2020/12/16 01:52:31;;;;;;;48.40;20.55;;;13.90;64.30;;;;;;5025189;28;20060;-66
2020/12/16 01:54:58;;;;;;;55.80;20.80;;;13.90;64.20;;;;;;5027942;28;20037;-66
2020/12/16 01:57:25;;;;;;;60.08;21.42;;;13.80;64.00;;;;;;5023119;28;24500;-66
2020/12/16 01:59:51;;;;;;;66.68;21.88;;;13.80;63.90;;;;;;5025589;28;20103;-66
2020/12/16 02:02:19;;;;;;;64.07;22.45;;;13.80;63.90;;;;;;5015813;28;20056;-66
2020/12/16 02:04:50;;;;;;;69.75;21.92;;;13.70;63.90;;;;;;5029559;28;20053;-66
2020/12/16 02:07:16;;;;;;;65.65;23.33;;;13.70;64.00;;;;;;5028776;28;20048;-66
2020/12/16 02:09:44;;;;;;;60.13;21.77;;;13.60;63.90;;;;;;5023883;28;20114;-66
2020/12/16 02:12:34;;;;;;;61.83;21.00;;;13.60;63.90;;;;;;5025742;28;20052;-66
2020/12/16 02:15:00;;;;;;;63.67;20.98;;;13.50;63.80;;;;;;5026799;28;20068;-66
2020/12/16 02:17:26;;;;;;;72.90;23.17;;;13.40;63.80;;;;;;5021860;28;20492;-66
2020/12/16 02:20:00;;;;;;;62.47;22.25;;;13.40;63.90;;;;;;5028838;28;20784;-66
2020/12/16 02:22:26;;;;;;;67.32;21.98;;;13.30;63.90;;;;;;5037757;28;20044;-66
2020/12/16 02:25:06;;;;;;;62.47;20.40;;;13.20;63.80;;;;;;5030372;28;20037;-66
2020/12/16 02:27:33;;;;;;;69.30;22.40;;;13.10;63.80;;;;;;5025592;28;20048;-66
2020/12/16 02:30:03;;;;;;;79.68;22.67;;;13.10;64.00;;;;;;5030147;28;20163;-66
2020/12/16 02:32:28;;;;;;;68.22;22.55;;;13.00;64.80;;;;;;5020950;28;21779;-66
2020/12/16 02:34:55;;;;;;;62.13;19.80;;;12.90;64.10;;;;;;5028751;28;20494;-66
2020/12/16 02:37:22;;;;;;;59.90;20.58;;;12.90;64.10;;;;;;5020847;28;20643;-66
2020/12/16 02:39:48;;;;;;;61.60;17.52;;;12.80;63.80;;;;;;5029216;28;20118;-66
2020/12/16 02:42:19;;;;;;;62.00;20.55;;;12.80;63.80;;;;;;5023515;28;20037;-66
2020/12/16 02:44:44;;;;;;;53.72;18.40;;;12.70;63.60;;;;;;5025347;28;20136;-66
2020/12/16 02:47:10;;;;;;;56.40;19.10;;;12.60;63.80;;;;;;5025192;28;20645;-66
2020/12/16 02:49:36;;;;;;;53.00;16.80;;;12.60;64.00;;;;;;5027830;28;20033;-66
2020/12/16 02:52:01;;;;;;;77.18;21.70;;;12.60;64.10;;;;;;5022041;28;20063;-66
2020/12/16 02:54:27;;;;;;;71.45;19.65;;;12.60;64.30;;;;;;5031458;28;20037;-66
2020/12/16 02:56:54;;;;;;;65.05;17.85;;;12.60;64.30;;;;;;5029827;28;20040;-66
2020/12/16 02:59:24;;;;;;;73.75;19.73;;;12.60;64.30;;;;;;5030055;28;20136;-66
2020/12/16 03:01:52;;;;;;;54.53;14.32;;;12.50;64.10;;;;;;5024878;28;20060;-66
2020/12/16 03:04:18;;;;;;;60.42;18.73;;;12.50;64.10;;;;;;5027549;28;20045;-66
2020/12/16 03:06:48;;;;;;;74.05;20.23;;;12.50;64.20;;;;;;5024088;28;20123;-66
2020/12/16 03:09:21;;;;;;;81.18;22.13;;;12.40;64.40;;;;;;5026917;28;20071;-66
2020/12/16 03:11:50;;;;;;;92.55;24.92;;;12.40;64.50;;;;;;5022142;28;20095;-66
2020/12/16 03:14:16;;;;;;;68.30;17.60;;;12.50;64.70;;;;;;5025488;28;20072;-66
2020/12/16 03:16:42;;;;;;;84.97;22.50;;;12.50;64.80;;;;;;5029206;28;20512;-66
2020/12/16 03:19:08;;;;;;;88.07;23.45;;;12.50;64.80;;;;;;5035465;28;20057;-66
2020/12/16 03:21:33;;;;;;;108.68;27.10;;;12.50;64.80;;;;;;5026227;28;20120;-66
2020/12/16 03:23:59;;;;;;;105.47;25.20;;;12.50;65.10;;;;;;5029584;28;20045;-66
2020/12/16 03:26:25;;;;;;;102.95;25.60;;;12.50;65.30;;;;;;5032830;28;20681;-66
2020/12/16 03:28:50;;;;;;;115.45;26.38;;;12.50;65.30;;;;;;5026019;28;21000;-66
2020/12/16 03:31:17;;;;;;;111.05;26.52;;;12.50;65.40;;;;;;5024440;28;21517;-66
2020/12/16 03:33:44;;;;;;;109.97;26.75;;;12.50;65.30;;;;;;5031036;28;20077;-66
2020/12/16 03:36:17;;;;;;;108.78;24.45;;;12.50;65.20;;;;;;5030074;28;22333;-66
2020/12/16 03:38:43;;;;;;;106.82;26.00;;;12.50;65.20;;;;;;5029075;28;20048;-66
2020/12/16 03:41:09;;;;;;;105.35;26.30;;;12.50;65.30;;;;;;5027978;28;20044;-66
2020/12/16 03:43:35;;;;;;;90.50;23.92;;;12.50;65.30;;;;;;5027137;28;20087;-66
2020/12/16 03:46:01;;;;;;;90.55;23.67;;;12.50;65.30;;;;;;5028236;28;20041;-66
2020/12/16 03:48:27;;;;;;;93.25;23.27;;;12.50;65.20;;;;;;5028460;28;20037;-66
2020/12/16 03:50:52;;;;;;;83.97;22.35;;;12.40;65.10;;;;;;5033838;28;20043;-66
2020/12/16 03:53:20;;;;;;;86.97;23.40;;;12.40;64.90;;;;;;5021549;28;20056;-66
2020/12/16 03:55:46;;;;;;;104.20;24.08;;;12.40;64.90;;;;;;5032808;28;20613;-66
2020/12/16 03:58:11;;;;;;;105.68;24.70;;;12.40;65.00;;;;;;5026621;28;20041;-66
2020/12/16 04:00:37;;;;;;;95.80;24.25;;;12.40;64.90;;;;;;5033936;28;20060;-66
2020/12/16 04:03:03;;;;;;;107.55;25.60;;;12.30;64.80;;;;;;5025138;28;20055;-66
2020/12/16 04:05:28;;;;;;;112.75;25.25;;;12.20;64.70;;;;;;5045775;28;20033;-66
2020/12/16 04:07:54;;;;;;;126.88;26.05;;;12.20;64.70;;;;;;5024423;28;20029;-66
2020/12/16 04:10:20;;;;;;;107.50;25.55;;;12.10;64.70;;;;;;5026167;28;20150;-66
2020/12/16 04:12:45;;;;;;;116.25;25.80;;;12.00;64.60;;;;;;5024728;28;20040;-66
2020/12/16 04:15:11;;;;;;;104.20;21.13;;;12.00;64.80;;;;;;5032721;28;20056;-66
2020/12/16 04:17:37;;;;;;;100.50;23.63;;;11.90;64.60;;;;;;5033019;28;20508;-66
2020/12/16 04:20:05;;;;;;;111.35;25.98;;;11.80;64.50;;;;;;5025106;28;20124;-66
2020/12/16 04:22:31;;;;;;;112.47;25.27;;;11.80;64.60;;;;;;5021051;28;20037;-66
2020/12/16 04:24:57;;;;;;;118.03;24.38;;;11.70;64.80;;;;;;5024975;28;20680;-66
2020/12/16 04:27:22;;;;;;;111.85;23.58;;;11.70;64.80;;;;;;5027733;28;20632;-66
2020/12/16 04:29:48;;;;;;;110.60;23.25;;;11.60;64.60;;;;;;5028160;28;20557;-66
2020/12/16 04:32:14;;;;;;;119.15;25.85;;;11.60;64.60;;;;;;5025528;28;20158;-66
2020/12/16 04:34:40;;;;;;;141.35;26.73;;;11.50;64.70;;;;;;5027195;28;20041;-66
2020/12/16 04:37:06;;;;;;;120.03;25.90;;;11.50;65.10;;;;;;5017911;28;20061;-66
2020/12/16 04:39:32;;;;;;;119.97;24.25;;;11.40;65.10;;;;;;5041870;28;20632;-66
2020/12/16 04:41:57;;;;;;;103.57;23.23;;;11.40;65.10;;;;;;5022026;28;20041;-66
2020/12/16 04:44:23;;;;;;;106.35;24.90;;;11.40;65.00;;;;;;5016346;28;20501;-66
2020/12/16 04:46:49;;;;;;;123.80;25.80;;;11.30;64.80;;;;;;5027227;28;20378;-66
2020/12/16 04:49:15;;;;;;;129.13;27.02;;;11.20;64.80;;;;;;5026637;28;20509;-66
2020/12/16 04:51:44;;;;;;;124.25;25.30;;;11.20;64.90;;;;;;5021571;28;20044;-66
2020/12/16 04:54:12;;;;;;;131.27;27.27;;;11.20;65.10;;;;;;5027727;28;20038;-66
2020/12/16 04:56:40;;;;;;;117.95;26.38;;;11.20;65.90;;;;;;5027493;28;20069;-66
2020/12/16 04:59:07;;;;;;;116.28;25.38;;;11.10;65.20;;;;;;5023207;28;20049;-66
2020/12/16 05:01:41;;;;;;;137.35;25.52;;;11.10;65.10;;;;;;5017230;28;20120;-66
2020/12/16 05:04:08;;;;;;;119.72;22.88;;;11.00;65.10;;;;;;5019190;28;20033;-66
2020/12/16 05:06:41;;;;;;;127.70;24.15;;;11.00;65.00;;;;;;5022502;28;20052;-66
2020/12/16 05:09:13;;;;;;;135.70;26.88;;;11.00;65.10;;;;;;5022876;28;20069;-66
2020/12/16 05:11:49;;;;;;;149.95;28.92;;;10.90;65.30;;;;;;5024884;28;20052;-66
2020/12/16 05:14:16;;;;;;;158.85;29.15;;;10.90;65.80;;;;;;5017901;28;20064;-66
2020/12/16 05:16:51;;;;;;;154.27;30.08;;;10.90;65.90;;;;;;5026067;28;20103;-66
2020/12/16 05:19:40;;;;;;;152.98;30.15;;;10.90;66.00;;;;;;5017843;28;20049;-66
2020/12/16 05:22:22;;;;;;;146.10;26.55;;;10.90;65.80;;;;;;5020854;28;20037;-66
2020/12/16 05:24:53;;;;;;;145.95;27.50;;;10.90;65.70;;;;;;5021804;28;20037;-66
2020/12/16 05:27:24;;;;;;;150.82;27.60;;;10.80;65.60;;;;;;5020544;28;20037;-66
2020/12/16 05:29:58;;;;;;;148.73;27.02;;;10.80;65.70;;;;;;5019829;28;20033;-66
2020/12/16 05:32:32;;;;;;;147.55;27.83;;;10.80;65.80;;;;;;5034866;28;20065;-66
2020/12/16 05:34:59;;;;;;;154.43;29.60;;;10.80;65.80;;;;;;5021180;28;20048;-66
2020/12/16 05:37:30;;;;;;;152.85;28.50;;;10.70;65.90;;;;;;5024910;28;20377;-66
2020/12/16 05:40:03;;;;;;;161.68;29.17;;;10.70;65.90;;;;;;5020175;28;20040;-66
2020/12/16 05:42:29;;;;;;;147.00;28.17;;;10.70;66.00;;;;;;5022569;28;20041;-66
2020/12/16 05:44:59;;;;;;;138.07;29.33;;;10.70;65.90;;;;;;5024970;28;20661;-66
2020/12/16 05:47:25;;;;;;;156.88;29.85;;;10.70;66.00;;;;;;5027644;28;20040;-66
2020/12/16 05:49:51;;;;;;;146.80;28.55;;;10.70;66.00;;;;;;5028529;28;20126;-66
2020/12/16 05:52:17;;;;;;;164.90;30.30;;;10.70;65.90;;;;;;5018954;28;20170;-66
2020/12/16 05:54:49;;;;;;;158.93;29.13;;;10.70;65.90;;;;;;5019767;28;20597;-66
2020/12/16 05:57:17;;;;;;;185.63;32.00;;;10.60;66.00;;;;;;5020588;28;20051;-66
2020/12/16 06:00:12;;;;;;;193.88;31.00;;;10.60;66.10;;;;;;5017864;28;20043;-66
2020/12/16 06:02:44;;;;;;;162.32;27.52;;;10.60;66.10;;;;;;5025073;28;20615;-66
2020/12/16 06:05:15;;;;;;;133.55;24.98;;;10.60;65.90;;;;;;5014555;28;20055;-66
2020/12/16 06:07:46;;;;;;;149.38;26.95;;;10.50;65.50;;;;;;5016882;28;20045;-66
2020/12/16 06:10:12;;;;;;;165.27;29.80;;;10.50;65.40;;;;;;5021135;28;20120;-66
2020/12/16 06:12:40;;;;;;;142.05;27.00;;;10.40;65.70;;;;;;5025557;28;21006;-66
2020/12/16 06:15:05;;;;;;;469.42;31.35;;;10.40;65.80;;;;;;5025190;28;20123;-67
2020/12/16 06:17:38;;;;;;;302.30;23.15;;;10.40;66.10;;;;;;5023132;28;20047;-66
2020/12/16 06:20:06;;;;;;;318.48;20.77;;;10.30;65.00;;;;;;5024190;28;20049;-66
2020/12/16 06:22:36;;;;;;;119.50;21.58;;;10.20;64.90;;;;;;5025186;28;20037;-66
2020/12/16 06:25:07;;;;;;;102.82;20.77;;;10.20;65.10;;;;;;5043099;28;20045;-66
2020/12/16 06:27:42;;;;;;;118.68;20.73;;;10.10;65.10;;;;;;5035126;28;20045;-66
2020/12/16 06:30:19;;;;;;;99.13;20.20;;;10.10;65.30;;;;;;5034915;28;20504;-66
2020/12/16 06:32:57;;;;;;;158.55;29.10;;;10.10;65.50;;;;;;5036119;28;20529;-66
2020/12/16 06:35:23;;;;;;;166.05;30.83;;;10.10;66.00;;;;;;5032522;28;20328;-66
2020/12/16 06:38:22;;;;;;;150.43;28.17;;;10.20;66.40;;;;;;5035921;28;20064;-66
2020/12/16 06:40:56;;;;;;;150.98;27.77;;;10.30;66.70;;;;;;5034495;28;20032;-67
2020/12/16 06:43:30;;;;;;;152.10;30.48;;;10.40;66.90;;;;;;5029590;28;20126;-66
2020/12/16 06:45:57;;;;;;;148.65;28.10;;;10.50;66.80;;;;;;5026450;28;20041;-66
2020/12/16 06:48:49;;;;;;;159.63;31.20;;;10.60;66.80;;;;;;5018600;28;20041;-66
2020/12/16 06:51:15;;;;;;;169.73;29.73;;;10.60;66.70;;;;;;5023599;28;20048;-66
2020/12/16 06:53:43;;;;;;;154.93;28.77;;;10.70;66.80;;;;;;5024319;28;20091;-66
2020/12/16 06:56:08;;;;;;;131.43;26.52;;;10.70;66.50;;;;;;5023787;28;20199;-66
2020/12/16 06:58:40;;;;;;;145.15;22.70;;;10.70;66.40;;;;;;5023189;28;21158;-66
2020/12/16 07:01:10;;;;;;;165.73;27.00;;;10.70;66.00;;;;;;5014602;28;20429;-66
2020/12/16 07:03:36;;;;;;;141.10;26.35;;;10.70;65.90;;;;;;5022944;28;20096;-66
2020/12/16 07:06:04;;;;;;;164.02;26.83;;;10.70;65.70;;;;;;5014054;28;20421;-66
2020/12/16 07:08:30;;;;;;;155.00;26.60;;;10.70;65.70;;;;;;5011453;28;20952;-66
2020/12/16 07:10:56;;;;;;;159.95;27.95;;;10.60;65.60;;;;;;5019506;28;20132;-66
2020/12/16 07:13:26;;;;;;;149.88;27.85;;;10.60;65.70;;;;;;5016256;28;20041;-66
2020/12/16 07:15:58;;;;;;;167.45;26.33;;;10.50;65.60;;;;;;5019421;28;20041;-66
2020/12/16 07:18:46;;;;;;;167.95;26.95;;;10.50;65.30;;;;;;5009581;28;20159;-66
2020/12/16 07:21:11;;;;;;;206.73;28.50;;;10.40;65.20;;;;;;5035234;28;20048;-66
2020/12/16 07:26:43;;;;;;;136.73;24.13;;;10.30;65.30;;;;;;5033144;28;20527;-62
2020/12/16 07:29:18;;;;;;;191.32;20.73;;;10.20;65.20;;;;;;5037912;28;20045;-62
2020/12/16 07:32:05;;;;;;;153.18;20.52;;;10.10;65.20;;;;;;5039668;28;20060;-62
2020/12/16 07:34:33;;;;;;;142.05;18.25;;;10.10;65.10;;;;;;5044897;28;20046;-62
2020/12/16 07:37:03;;;;;;;247.88;18.50;;;10.00;65.20;;;;;;5037642;28;20186;-62
2020/12/16 07:39:31;;;;;;;94.47;14.70;;;9.90;65.00;;;;;;5037707;28;20041;-61
2020/12/16 07:41:58;;;;;;;118.10;20.25;;;9.90;64.90;;;;;;5036844;28;20093;-61
2020/12/16 07:44:24;;;;;;;135.63;22.48;;;9.80;65.10;;;;;;5045903;28;20469;-63
2020/12/16 07:47:03;;;;;;;128.80;24.30;;;9.80;65.50;;;;;;5040402;28;20136;-61
2020/12/16 07:49:29;;;;;;;129.63;21.10;;;9.70;65.40;;;;;;5045425;28;20063;-61
2020/12/16 07:52:02;;;;;;;142.82;22.25;;;9.80;65.50;;;;;;5036644;28;20761;-61
2020/12/16 07:54:29;;;;;;;154.95;25.67;;;9.70;65.40;;;;;;5030097;28;20052;-61
2020/12/16 07:56:56;;;;;;;149.60;25.85;;;9.70;65.70;;;;;;5024919;28;20132;-61
2020/12/16 07:59:27;;;;;;;142.55;24.92;;;9.70;65.70;;;;;;5037693;28;20086;-61
2020/12/16 08:02:02;;;;;;;179.65;24.98;;;9.80;65.70;;;;;;5043518;28;20049;-61
2020/12/16 08:04:28;;;;;;;136.00;23.75;;;9.80;65.70;;;;;;5036374;28;20654;-61
2020/12/16 08:06:53;;;;;;;180.10;25.35;;;9.80;65.60;;;;;;5040675;28;20037;-61
2020/12/16 08:09:22;;;;;;;142.05;23.55;;;9.80;65.80;;;;;;5043454;28;20040;-61
2020/12/16 08:11:47;;;;;;;176.35;28.23;;;9.80;65.70;;;;;;5045588;28;20043;-61
2020/12/16 08:14:13;;;;;;;211.70;31.45;;;9.80;65.80;;;;;;5042184;28;20040;-61
2020/12/16 08:16:41;;;;;;;171.35;26.15;;;9.80;65.90;;;;;;5044657;28;20049;-61
2020/12/16 08:19:06;;;;;;;155.98;27.35;;;9.80;66.10;;;;;;5049759;28;20048;-62
2020/12/16 08:21:32;;;;;;;147.80;21.70;;;9.90;66.10;;;;;;5047132;28;20045;-61
2020/12/16 08:23:58;;;;;;;151.07;24.35;;;9.90;66.00;;;;;;5051942;28;20059;-62
2020/12/16 08:26:25;;;;;;;184.48;31.15;;;9.90;65.90;;;;;;5050812;28;20041;-62
2020/12/16 08:28:51;;;;;;;208.77;31.30;;;9.90;65.90;;;;;;5051692;28;20415;-61
2020/12/16 08:31:19;;;;;;;224.77;35.78;;;10.00;66.40;;;;;;5043766;28;20127;-61
2020/12/16 08:33:48;;;;;;;230.52;38.63;;;10.00;66.80;;;;;;5053924;28;20037;-61
2020/12/16 08:36:20;;;;;;;242.88;38.13;;;10.10;67.10;;;;;;5052426;28;20032;-62
2020/12/16 08:38:48;;;;;;;250.77;39.08;;;10.20;67.30;;;;;;5054167;28;20182;-62
2020/12/16 08:41:23;;;;;;;232.30;37.25;;;10.30;67.30;;;;;;5051738;28;20044;-62
2020/12/16 08:43:48;;;;;;;212.60;37.28;;;10.40;67.20;;;;;;5048472;28;20093;-62
2020/12/16 08:46:17;;;;;;;239.45;40.28;;;10.50;67.20;;;;;;5043770;28;20041;-62
2020/12/16 08:49:01;;;;;;;226.75;39.50;;;10.60;67.30;;;;;;5042909;28;20086;-62
2020/12/16 08:51:32;;;;;;;224.50;37.65;;;10.60;67.20;;;;;;5041396;28;20123;-62
2020/12/16 08:54:04;;;;;;;227.23;35.47;;;10.70;67.00;;;;;;5043089;28;20043;-62
2020/12/16 08:56:42;;;;;;;270.90;40.60;;;10.70;67.00;;;;;;5028875;28;20063;-62
2020/12/16 08:59:18;;;;;;;253.98;40.17;;;10.80;67.00;;;;;;5047004;28;20040;-62
2020/12/16 09:01:51;;;;;;;268.00;43.05;;;10.90;67.10;;;;;;5044553;28;20063;-62
2020/12/16 09:04:32;;;;;;;276.95;42.72;;;10.90;67.10;;;;;;5042711;28;20052;-62
2020/12/16 09:07:01;;;;;;;277.42;42.28;;;11.00;67.30;;;;;;5039213;28;20078;-62
2020/12/16 09:09:27;;;;;;;266.17;43.40;;;11.00;67.30;;;;;;5038162;28;20040;-62
2020/12/16 09:11:56;;;;;;;268.23;44.45;;;11.10;67.30;;;;;;5038517;28;20052;-61
2020/12/16 09:14:24;;;;;;;271.80;44.47;;;11.20;68.10;;;;;;5039111;28;20068;-62
2020/12/16 09:16:51;;;;;;;258.77;42.08;;;11.20;67.30;;;;;;5044352;28;20045;-61
2020/12/16 09:19:19;;;;;;;264.38;42.80;;;11.30;67.30;;;;;;5041874;28;20048;-62
2020/12/16 09:21:46;;;;;;;283.25;44.55;;;11.40;67.30;;;;;;5040870;28;20153;-62
2020/12/16 09:24:12;;;;;;;259.75;42.88;;;11.50;67.30;;;;;;5043197;28;20780;-62
2020/12/16 09:26:45;;;;;;;252.57;44.17;;;11.50;67.30;;;;;;5041336;28;20044;-62
2020/12/16 09:29:28;;;;;;;242.18;42.50;;;11.50;67.20;;;;;;5042065;28;20060;-62
2020/12/16 09:32:06;;;;;;;254.32;42.50;;;11.60;67.20;;;;;;5030785;28;20388;-62
2020/12/16 09:34:43;;;;;;;232.15;42.50;;;11.70;67.10;;;;;;5043730;28;20642;-62
2020/12/16 09:37:33;;;;;;;248.65;42.92;;;11.70;67.00;;;;;;5042486;28;20044;-62
2020/12/16 09:40:22;;;;;;;225.73;43.40;;;11.80;67.00;;;;;;5036249;28;20376;-62
2020/12/16 09:42:56;;;;;;;231.93;40.67;;;11.80;66.90;;;;;;5039476;28;20037;-62
2020/12/16 09:45:22;;;;;;;262.00;44.00;;;11.80;66.80;;;;;;5045160;28;20041;-62
2020/12/16 09:47:52;;;;;;;234.10;43.90;;;11.90;66.80;;;;;;5038368;28;20148;-62
2020/12/16 09:50:29;;;;;;;250.10;44.72;;;11.90;66.80;;;;;;5042585;28;20048;-62
2020/12/16 09:53:10;;;;;;;227.95;42.65;;;11.90;66.80;;;;;;5041403;28;20079;-62
2020/12/16 09:55:39;;;;;;;231.95;44.22;;;12.00;66.80;;;;;;5046445;28;20040;-62
2020/12/16 09:58:12;;;;;;;223.95;44.63;;;12.00;66.90;;;;;;5040984;28;20052;-62
2020/12/16 10:00:40;;;;;;;224.65;44.42;;;12.10;67.00;;;;;;5043014;28;20032;-62
2020/12/16 10:03:08;;;;;;;224.25;46.00;;;12.20;67.20;;;;;;5045096;28;20036;-68
2020/12/16 10:05:35;;;;;;;213.65;46.85;;;12.30;67.30;;;;;;5051643;28;20032;-62
2020/12/16 10:08:02;;;;;;;175.20;45.03;;;12.40;67.50;;;;;;5051684;28;20357;-62
2020/12/16 10:10:29;;;;;;;144.25;43.40;;;12.70;68.90;;;;;;5048696;28;20040;-62
2020/12/16 10:12:55;;;;;;;147.82;44.97;;;13.20;69.40;;;;;;5028788;28;20045;-62
2020/12/16 10:15:21;;;;;;;132.73;42.10;;;13.70;69.20;;;;;;5045725;28;20068;-62
2020/12/16 10:17:46;;;;;;;115.88;38.58;;;14.40;69.30;;;;;;5043353;28;20078;-62
2020/12/16 10:20:12;;;;;;;93.35;36.72;;;15.00;68.10;;;;;;5038145;28;20047;-62
2020/12/16 10:22:40;;;;;;;85.57;34.50;;;15.50;66.40;;;;;;5041538;28;20816;-62
2020/12/16 10:25:06;;;;;;;68.88;31.05;;;15.90;65.60;;;;;;5038956;28;20086;-62
2020/12/16 10:27:32;;;;;;;73.40;32.65;;;16.20;64.10;;;;;;5038767;28;20041;-63
2020/12/16 10:29:58;;;;;;;71.55;32.15;;;16.50;63.60;;;;;;5035429;28;20032;-62
2020/12/16 10:32:25;;;;;;;63.05;30.05;;;16.80;63.40;;;;;;5042282;28;20041;-62
2020/12/16 10:34:53;;;;;;;64.82;29.83;;;17.00;62.60;;;;;;5043152;28;20036;-62
2020/12/16 10:37:20;;;;;;;57.75;26.98;;;17.10;61.50;;;;;;5040728;28;20475;-62
2020/12/16 10:39:47;;;;;;;55.30;26.85;;;17.10;61.70;;;;;;5042928;28;20114;-62
2020/12/16 10:42:15;;;;;;;50.55;26.73;;;17.00;60.60;;;;;;5042031;28;20041;-62
2020/12/16 10:44:41;;;;;;;56.65;27.25;;;16.80;60.20;;;;;;5042730;28;20044;-62
2020/12/16 10:47:07;;;;;;;49.85;26.58;;;16.70;60.60;;;;;;5037556;28;20901;-62
2020/12/16 10:49:33;;;;;;;53.65;27.33;;;16.70;61.10;;;;;;5050118;28;20024;-62
2020/12/16 10:52:07;;;;;;;50.13;26.50;;;16.70;60.40;;;;;;5036897;28;20040;-62
2020/12/16 10:54:35;;;;;;;49.33;24.38;;;16.70;60.00;;;;;;5025892;28;20049;-62
2020/12/16 10:57:01;;;;;;;53.00;26.55;;;16.60;60.20;;;;;;5048641;28;20042;-62
2020/12/16 10:59:28;;;;;;;51.20;27.23;;;16.60;60.00;;;;;;5044848;28;20041;-62
2020/12/16 11:01:54;;;;;;;49.03;24.70;;;16.60;59.90;;;;;;5044344;28;20041;-62
2020/12/16 11:04:19;;;;;;;48.53;25.75;;;16.60;59.90;;;;;;5045462;28;20467;-62
2020/12/16 11:06:47;;;;;;;47.25;24.15;;;16.70;59.90;;;;;;5030074;28;20064;-62
2020/12/16 11:09:15;;;;;;;48.97;25.02;;;16.70;59.50;;;;;;5049561;28;20141;-62
2020/12/16 11:11:42;;;;;;;43.22;22.90;;;16.80;59.40;;;;;;5049890;28;20948;-62
2020/12/16 11:14:08;;;;;;;40.20;22.85;;;16.80;59.20;;;;;;5046196;28;20498;-62
2020/12/16 11:16:34;;;;;;;37.50;21.35;;;17.00;59.50;;;;;;5045083;28;20041;-62
2020/12/16 11:19:00;;;;;;;39.33;20.17;;;17.20;58.60;;;;;;5050006;28;20277;-62
2020/12/16 11:21:26;;;;;;;34.70;19.42;;;17.40;57.40;;;;;;5044041;28;20374;-62
2020/12/16 11:23:52;;;;;;;37.72;19.33;;;17.40;57.00;;;;;;5044651;28;20118;-62
2020/12/16 11:26:18;;;;;;;34.33;19.33;;;17.60;56.20;;;;;;5043761;28;20052;-62
2020/12/16 11:28:43;;;;;;;33.80;20.33;;;17.70;55.90;;;;;;5038397;28;20044;-62
2020/12/16 11:31:09;;;;;;;33.22;20.08;;;17.80;55.60;;;;;;5041492;28;20052;-62
2020/12/16 11:33:34;;;;;;;37.35;20.67;;;17.90;55.20;;;;;;5040884;28;20063;-62
2020/12/16 11:36:00;;;;;;;32.20;20.08;;;18.30;55.30;;;;;;5049564;28;20060;-62
2020/12/16 11:38:26;;;;;;;34.17;19.48;;;18.60;54.30;;;;;;5044145;28;20048;-62
2020/12/16 11:40:51;;;;;;;32.88;19.92;;;18.80;53.60;;;;;;5032445;28;20412;-62
2020/12/16 11:43:17;;;;;;;28.50;18.40;;;19.10;52.90;;;;;;5050977;28;20076;-62
2020/12/16 11:45:44;;;;;;;30.50;18.10;;;19.50;52.40;;;;;;5050266;28;20930;-62
2020/12/16 11:48:10;;;;;;;28.77;19.20;;;19.80;52.30;;;;;;5052968;28;20128;-62
2020/12/16 11:50:35;;;;;;;29.73;17.42;;;20.30;50.90;;;;;;5051956;28;20033;-62
2020/12/16 11:53:01;;;;;;;33.28;18.58;;;20.80;49.80;;;;;;5051087;28;20041;-62
2020/12/16 11:55:27;;;;;;;30.08;18.48;;;21.10;48.90;;;;;;5044853;28;20050;-62
2020/12/16 11:57:52;;;;;;;29.45;17.98;;;21.60;48.00;;;;;;5054678;28;20040;-62
2020/12/16 12:00:18;;;;;;;28.45;18.48;;;;;;;;;;5050791;28;20400;-62
2020/12/16 12:02:45;;;;;;;30.95;19.00;;;21.90;46.50;;;;;;5049819;28;20060;-62
2020/12/16 12:05:10;;;;;;;27.35;18.98;;;21.40;45.00;;;;;;5046225;28;20045;-62
2020/12/16 12:07:36;;;;;;;26.77;17.17;;;21.00;46.70;;;;;;5044670;28;20094;-62
2020/12/16 12:10:03;;;;;;;26.85;16.52;;;21.30;46.80;;;;;;5048130;28;20033;-63
2020/12/16 12:12:29;;;;;;;27.88;17.25;;;;;;;;;;5038579;28;20037;-64
2020/12/16 12:14:55;;;;;;;27.35;17.52;;;;;;;;;;5053305;28;20140;-62
2020/12/16 12:17:22;;;;;;;27.13;17.63;;;;;;;;;;5055053;28;20086;-62
2020/12/16 12:19:48;;;;;;;27.65;17.92;;;;;;;;;;5049416;28;20113;-62
2020/12/16 12:22:14;;;;;;;31.70;18.13;;;21.30;45.80;;;;;;5033982;28;20036;-62
2020/12/16 12:24:40;;;;;;;31.35;18.17;;;19.20;47.10;;;;;;5058586;28;20501;-62
2020/12/16 12:27:06;;;;;;;32.97;19.00;;;18.60;48.20;;;;;;5054013;28;20055;-62
2020/12/16 12:29:31;;;;;;;31.80;19.38;;;18.20;49.20;;;;;;5049300;28;20150;-62
2020/12/16 12:31:57;;;;;;;29.65;18.27;;;17.80;50.00;;;;;;5043061;28;20509;-62